SBLOSBKP

Guest
Details From SBLO - Londrina
To SBKP - Sao Paulo Viracopos
Flight Number -
Tags decoded
Created
Modified
Stats Distance 221 nm / 410 km
Max Altitude 0 ft / 0 m
Waypoints 2
Social Downloads 0
Likes 0
Share VATSIM

Download

Looking for another format? Having issues loading an existing format? Contact us
Advertisement - Login to hide

Notes

Requested: SBLO DEXOV UZ65 EDMOX UM411 PUPSI SBKP Unmatched points: DEXOV UZ65 EDMOX UM411 PUPSI

Route

SBLO SBKP

ID Type Via Altitude Latitude Longitude Leg Dist Tot Dist Heading (true) Name
O SBLO APT - 0 ft / 0 m -23.33362˚ -51.13007˚ - 0 nm - Londrina
O SBKP APT - 0 ft / 0 m -23.00738˚ -47.13452˚ 221 nm 221 nm 86° / 84° Sao Paulo Viracopos

Altitude Profile

Advertisement - Login to hide

Weather


0- 5 10 15 20 25 30 35+ Temperature / °C

Clouds and Precipitation
Forecast for 2018-08-15 18:00 UTC. Updated 5 hours ago

Ground ~20,000 ft ~40,000 ft Winds

SBLO

Details ICAO SBLO (LDB)
Name Londrina
Region Brazil
Timezone America/Sao_Paulo (UTC-3.0)
Stats Elevation 1,867 ft / 569 m (AMSL)
Location -23.333624° -51.130073°
Runways 1
Magnetic Variation 19.176° W

METAR

SBLO 152000Z 13004KT CAVOK 23/10 Q1020

Decode

TAF

TAF SBLO 151530Z 1518/1606 16004KT CAVOK TX25/1518Z TN16/1605Z BECMG 1601/1603 10008KT 9999 SCT040 RMK PER

Decode

Departure Runways

ID Width Length Bearing (true/mag) Surface Threshold Overrun Markings Lighting
13 148 ft / 45 m 6,926 ft / 2,111 m 110.29° / 129.47° ASPHALT 975 ft / 297 m 0 ft / 0 m APP EDGE THRESHOLD
31 148 ft / 45 m 6,926 ft / 2,111 m 290.28° / 309.46° ASPHALT 0 ft / 0 m 100 ft / 30 m APP EDGE THRESHOLD

SBKP

Details ICAO SBKP (VCP)
Name Viracopos Airport
Region Brazil
Timezone America/Sao_Paulo (UTC-3.0)
Stats Elevation 2,168 ft / 661 m (AMSL)
Location -23.007418° -47.134478°
Runways 1
Magnetic Variation 21.280° W

METAR

SBKP 152000Z 13017KT CAVOK 19/11 Q1020

Decode

TAF

TAF SBKP 151600Z 1518/1618 15013KT CAVOK TX26/1518Z TN13/1609Z PROB30 TEMPO 1521/1602 15015G25KT RMK PGD

Decode

Destination Runways

ID Width Length Bearing (true/mag) Surface Threshold Overrun Markings Lighting
15 148 ft / 45 m 10,640 ft / 3,243 m 127.88° / 149.16° ASPHALT 0 ft / 0 m 187 ft / 57 m PREC-APP CENTERLINE EDGE THRESHOLD SALS TDZ REIL-OMNI
33 148 ft / 45 m 10,640 ft / 3,243 m 307.87° / 329.15° ASPHALT 302 ft / 92 m 187 ft / 57 m PREC-APP CENTERLINE EDGE THRESHOLD SALS TDZ REIL-OMNI

Approach Navaids

Runway Type Ident Frequency Range Bearing (true/mag) Slope Elevation
15 LOC-ILS IKP 110.30 MHz 18 nm / 33 km 127.95° / 149.23 ° - 2,170 ft / 661 m (AMSL)
15 MM MM - - 127.90° / 149.18 ° - 2,170 ft / 661 m (AMSL)
15 OM OM - - 127.90° / 149.18 ° - 2,170 ft / 661 m (AMSL)
15 GS IKP 110.30 MHz 10 nm / 19 km 128.80° / 150.08 ° 3.00° 2,170 ft / 661 m (AMSL)

Popular Alternatives